Time;durP1;ratioP1;P1;durP2;ratioP2;P2;SDS_P1;SDS_P2;PMS_P1;PMS_P2;Temp;Humidity;BMP_temperature;BMP_pressure;BME280_temperature;BME280_humidity;BME280_pressure;Samples;Min_cycle;Max_cycle;Signal;HPM_P1;HPM_P2
2022/11/29 00:19:55;;;;;;;4.57;3.67;;;;;;;3.16;71.78;95012.84;5144274;27;20920;-68
2022/11/29 00:22:23;;;;;;;5.32;3.08;;;;;;;3.10;72.37;95014.81;5143850;27;20043;-68
2022/11/29 00:24:49;;;;;;;5.65;3.38;;;;;;;3.12;71.46;95013.00;5125648;27;20030;-68
2022/11/29 00:27:15;;;;;;;6.75;3.95;;;;;;;3.18;70.83;95011.03;5125440;27;20024;-68
2022/11/29 00:29:40;;;;;;;4.65;3.25;;;;;;;3.17;71.58;95010.19;5106141;28;20032;-68
2022/11/29 00:32:06;;;;;;;4.78;3.40;;;;;;;3.08;71.93;95003.78;5121902;28;20032;-68
2022/11/29 00:34:31;;;;;;;4.78;3.55;;;;;;;3.07;71.99;95012.41;5123836;27;20027;-68
2022/11/29 00:36:57;;;;;;;3.65;2.63;;;;;;;3.06;72.54;95012.47;5090760;28;20035;-68
2022/11/29 00:39:22;;;;;;;3.42;2.70;;;;;;;3.01;72.96;95010.16;5090058;28;20027;-68
2022/11/29 00:41:47;;;;;;;2.90;2.40;;;;;;;2.97;72.22;95002.66;5123191;27;20031;-68
2022/11/29 00:44:13;;;;;;;3.15;2.20;;;;;;;3.06;72.41;95018.44;5125343;27;20032;-68
2022/11/29 00:46:38;;;;;;;2.58;1.88;;;;;;;2.99;72.17;95001.69;5125352;27;20484;-68
2022/11/29 00:49:04;;;;;;;2.97;2.15;;;;;;;2.97;72.68;95003.50;5089035;28;20036;-68
2022/11/29 00:51:29;;;;;;;3.10;2.03;;;;;;;2.94;73.15;95016.47;5104611;28;20027;-68
2022/11/29 00:53:55;;;;;;;3.40;1.95;;;;;;;2.97;72.96;95020.63;5125539;27;20023;-68
2022/11/29 00:56:20;;;;;;;2.30;1.65;;;;;;;2.93;73.08;95006.31;5124636;27;20031;-68
2022/11/29 00:58:47;;;;;;;3.65;2.17;;;;;;;2.93;73.20;95007.13;5124622;27;20027;-68
2022/11/29 01:01:13;;;;;;;4.13;2.80;;;;;;;2.99;72.41;95018.84;5104927;28;20035;-68
2022/11/29 01:03:38;;;;;;;3.42;2.53;;;;;;;2.97;71.99;95002.66;5106702;28;20324;-68
2022/11/29 01:06:06;;;;;;;4.15;2.80;;;;;;;3.01;72.03;95007.59;5123828;28;20039;-68
2022/11/29 01:08:31;;;;;;;3.70;2.80;;;;;;;2.89;71.81;94977.38;5122596;27;20510;-68
2022/11/29 01:11:11;;;;;;;4.18;2.80;;;;;;;3.16;71.47;95005.16;5122057;28;20031;-69
2022/11/29 01:13:37;;;;;;;10.18;3.67;;;;;;;3.10;71.78;94993.47;5089077;28;20098;-68
2022/11/29 01:16:03;;;;;;;4.80;2.75;;;;;;;3.12;72.15;95000.19;5123398;28;20031;-68
2022/11/29 01:18:29;;;;;;;4.35;3.35;;;;;;;3.18;71.96;95000.78;5088334;28;20073;-68
2022/11/29 01:21:04;;;;;;;4.18;3.20;;;;;;;3.08;71.85;94988.38;5109243;28;20024;-68
2022/11/29 01:23:30;;;;;;;5.68;3.40;;;;;;;3.18;71.42;95001.59;5110243;27;20416;-68
2022/11/29 01:26:00;;;;;;;5.10;3.78;;;;;;;3.12;71.32;94991.63;5092868;28;20020;-68
2022/11/29 01:28:26;;;;;;;5.80;4.18;;;;;;;3.14;71.48;94995.78;5074790;28;20047;-68
2022/11/29 01:30:51;;;;;;;4.72;3.55;;;;;;;3.11;71.99;94993.34;5090877;28;20504;-69
2022/11/29 01:33:17;;;;;;;4.35;3.30;;;;;;;3.21;71.38;94998.06;5109830;28;20031;-68
2022/11/29 01:35:49;;;;;;;4.88;3.50;;;;;;;3.16;71.51;94994.88;5109537;28;20055;-68
2022/11/29 01:38:15;;;;;;;4.53;3.40;;;;;;;3.23;71.55;94991.06;5109327;28;20489;-68
2022/11/29 01:40:40;;;;;;;4.80;3.40;;;;;;;3.25;71.19;94984.13;5107993;28;20038;-68
2022/11/29 01:43:15;;;;;;;4.43;3.22;;;;;;;3.23;71.05;94973.09;5092140;28;20485;-68
2022/11/29 01:45:41;;;;;;;4.65;3.03;;;;;;;3.29;71.00;94988.22;5109498;28;20026;-68
2022/11/29 01:48:06;;;;;;;5.50;3.45;;;;;;;3.18;71.33;94993.06;5108958;28;20031;-68
2022/11/29 01:50:32;;;;;;;5.57;3.22;;;;;;;3.20;71.64;94981.78;5073173;28;20625;-68
2022/11/29 01:52:57;;;;;;;5.18;3.28;;;;;;;3.11;71.28;94965.13;5091491;28;20032;-68
2022/11/29 01:55:23;;;;;;;5.95;3.38;;;;;;;2.99;71.42;94975.19;5091518;28;20023;-68
2022/11/29 01:57:48;;;;;;;5.00;3.42;;;;;;;2.99;71.77;94973.47;5092210;28;20124;-68
2022/11/29 02:00:15;;;;;;;5.03;3.45;;;;;;;2.97;71.62;94970.13;5108083;28;20194;-68
2022/11/29 02:02:43;;;;;;;5.20;3.65;;;;;;;3.06;71.21;94958.56;5107511;28;20050;-68
2022/11/29 02:05:09;;;;;;;4.57;3.10;;;;;;;2.99;72.00;94967.50;5091597;28;20412;-68
2022/11/29 02:07:34;;;;;;;4.00;3.00;;;;;;;2.99;71.96;94973.47;5074688;28;20150;-68
2022/11/29 02:10:00;;;;;;;4.53;2.85;;;;;;;3.05;71.53;94962.88;5108651;28;20023;-69
2022/11/29 02:12:52;;;;;;;4.60;3.03;;;;;;;3.02;71.68;94957.06;5089759;28;20560;-68
2022/11/29 02:15:35;;;;;;;4.25;2.72;;;;;;;2.99;71.99;94964.94;5076970;28;20446;-68
2022/11/29 02:18:13;;;;;;;4.10;2.60;;;;;;;3.02;71.86;94964.78;5092444;28;20067;-68
2022/11/29 02:20:41;;;;;;;4.07;2.80;;;;;;;2.98;72.09;94966.69;5084528;28;20023;-68
2022/11/29 02:23:22;;;;;;;5.53;2.88;;;;;;;2.95;72.03;94971.94;5109127;28;20542;-68
2022/11/29 02:25:56;;;;;;;4.15;2.55;;;;;;;2.67;72.65;94942.56;5109247;28;20035;-68
2022/11/29 02:28:40;;;;;;;4.70;2.90;;;;;;;2.82;71.91;94968.34;5108145;28;20040;-68
2022/11/29 02:31:30;;;;;;;4.90;3.30;;;;;;;2.84;71.72;94963.94;5106783;28;20028;-68
2022/11/29 02:34:17;;;;;;;4.57;2.90;;;;;;;2.77;71.90;94960.06;5093654;28;20047;-68
2022/11/29 02:37:08;;;;;;;7.45;3.63;;;;;;;2.83;72.04;94972.56;5103058;28;20028;-68
2022/11/29 02:40:13;;;;;;;5.97;3.25;;;;;;;2.85;71.98;94971.59;5108483;28;20048;-68
2022/11/29 02:42:56;;;;;;;4.03;2.92;;;;;;;2.89;71.50;94964.56;5106936;28;20042;-68
2022/11/29 02:45:44;;;;;;;5.22;3.00;;;;;;;2.77;72.85;94965.19;5111026;27;20028;-68
2022/11/29 02:48:33;;;;;;;5.20;3.13;;;;;;;2.84;72.58;94974.22;5088762;28;20184;-68
2022/11/29 02:51:06;;;;;;;4.97;2.85;;;;;;;2.94;72.57;94967.72;5103565;28;20024;-68
2022/11/29 02:53:48;;;;;;;4.47;3.05;;;;;;;2.97;72.30;94982.13;5090116;28;20032;-68
2022/11/29 02:56:23;;;;;;;4.78;2.70;;;;;;;2.90;72.49;94977.31;5107652;28;20027;-69
2022/11/29 02:59:08;;;;;;;6.13;3.08;;;;;;;2.87;72.22;94966.34;5108513;28;20036;-68
2022/11/29 03:02:03;;;;;;;4.35;2.80;;;;;;;2.97;71.59;94962.44;5089631;28;20031;-68
2022/11/29 03:04:46;;;;;;;4.13;2.45;;;;;;;3.03;71.60;94972.38;5096349;28;20051;-68
2022/11/29 03:07:18;;;;;;;3.95;2.67;;;;;;;3.06;71.31;94977.34;5092043;28;20024;-68
2022/11/29 03:09:55;;;;;;;4.10;2.60;;;;;;;3.04;71.14;94968.09;5090424;28;20028;-68
2022/11/29 03:12:30;;;;;;;4.63;2.53;;;;;;;2.96;71.41;94965.09;5089516;28;20479;-69
2022/11/29 03:14:56;;;;;;;4.88;3.20;;;;;;;3.03;71.72;94977.50;5090587;28;20505;-69
2022/11/29 03:18:03;;;;;;;4.50;2.60;;;;;;;3.04;71.40;94979.19;5108121;28;20027;-68
2022/11/29 03:20:42;;;;;;;4.75;2.97;;;;;;;3.07;71.43;94981.59;5103614;28;20595;-68
2022/11/29 03:23:23;;;;;;;5.15;3.00;;;;;;;3.18;71.02;94978.50;5107406;28;20307;-69
2022/11/29 03:25:56;;;;;;;4.55;2.60;;;;;;;3.08;71.56;94985.81;5106552;28;20459;-69
2022/11/29 03:28:32;;;;;;;4.95;2.88;;;;;;;3.20;71.06;94983.53;5088354;28;20062;-68
2022/11/29 03:31:13;;;;;;;4.15;2.53;;;;;;;3.09;71.11;94986.66;5105676;28;20047;-69
2022/11/29 03:34:16;;;;;;;4.55;2.47;;;;;;;3.13;70.98;94988.97;5106409;28;20019;-68
2022/11/29 03:36:41;;;;;;;4.03;2.50;;;;;;;3.11;71.40;94992.53;5108246;28;20033;-68
2022/11/29 03:39:11;;;;;;;4.57;2.70;;;;;;;3.12;71.08;94989.91;5106551;28;20023;-69
2022/11/29 03:41:44;;;;;;;3.60;2.20;;;;;;;3.05;70.96;94987.72;5071782;28;20035;-68
2022/11/29 03:44:16;;;;;;;4.05;2.20;;;;;;;3.08;71.07;94998.66;5089366;28;20035;-68
2022/11/29 03:46:51;;;;;;;3.58;2.30;;;;;;;2.93;71.47;94976.34;5090123;28;20114;-68
2022/11/29 03:49:29;;;;;;;3.38;2.05;;;;;;;2.96;70.74;94989.00;5106428;28;20027;-68
2022/11/29 03:52:07;;;;;;;5.93;2.00;;;;;;;3.06;70.62;94992.75;5091961;28;20027;-69
2022/11/29 03:54:52;;;;;;;3.58;2.03;;;;;;;3.05;70.12;94977.44;5109412;28;20023;-68
2022/11/29 03:57:20;;;;;;;4.05;1.88;;;;;;;2.97;70.31;94980.41;5092262;28;20032;-69
2022/11/29 04:00:12;;;;;;;2.58;1.67;;;;;;;3.02;69.96;94988.69;5091513;28;20028;-68
2022/11/29 04:03:06;;;;;;;2.83;1.70;;;;;;;3.06;69.53;94973.97;5106706;28;20043;-68
2022/11/29 04:05:39;;;;;;;3.17;1.48;;;;;;;2.95;70.05;94971.13;5109180;28;20019;-68
2022/11/29 04:08:35;;;;;;;2.17;1.40;;;;;;;3.07;70.05;94986.75;5109035;28;20093;-68
2022/11/29 04:11:22;;;;;;;2.30;1.50;;;;;;;3.10;70.26;94988.31;5106299;28;20031;-69
2022/11/29 04:14:12;;;;;;;2.28;1.60;;;;;;;3.10;70.46;94989.16;5111597;28;20125;-69
2022/11/29 04:16:55;;;;;;;4.18;1.92;;;;;;;3.11;70.23;94989.97;5109985;28;20027;-68
2022/11/29 04:19:36;;;;;;;3.22;2.03;;;;;;;3.14;70.98;94994.94;5109637;28;20052;-68
2022/11/29 04:22:35;;;;;;;3.30;1.83;;;;;;;3.08;70.67;94990.13;5111278;28;20031;-69
2022/11/29 04:25:21;;;;;;;2.58;1.73;;;;;;;3.14;70.82;94998.34;5090079;28;20410;-68
2022/11/29 04:28:11;;;;;;;2.88;2.13;;;;;;;3.15;70.64;95001.75;5090950;28;20029;-68
2022/11/29 04:31:11;;;;;;;2.45;1.70;;;;;;;3.07;70.11;95002.13;5090616;28;20081;-69
2022/11/29 04:34:11;;;;;;;4.00;2.08;;;;;;;2.98;70.41;94999.19;5092422;28;20035;-68
2022/11/29 04:37:00;;;;;;;3.72;1.70;;;;;;;2.95;70.25;94989.06;5094087;28;20035;-69
2022/11/29 04:39:41;;;;;;;2.55;1.65;;;;;;;2.98;70.80;94999.19;5078743;28;20118;-68
2022/11/29 04:42:10;;;;;;;4.20;2.37;;;;;;;3.04;70.84;95002.28;5110335;28;20045;-69
2022/11/29 04:44:44;;;;;;;19.58;10.15;;;;;;;3.03;70.83;95003.19;5110847;28;20054;-68
2022/11/29 04:47:31;;;;;;;35.63;19.33;;;;;;;3.05;70.90;94990.28;5110876;28;20493;-69
2022/11/29 04:50:22;;;;;;;5.00;2.90;;;;;;;3.00;70.18;95003.34;5110919;28;20031;-69
2022/11/29 04:53:15;;;;;;;3.55;1.98;;;;;;;3.02;70.02;94991.28;5109974;28;20568;-68
2022/11/29 04:56:07;;;;;;;5.35;3.30;;;;;;;3.05;70.15;94980.84;5113658;28;20032;-68
2022/11/29 04:58:37;;;;;;;5.63;2.58;;;;;;;3.09;69.93;94997.75;5104458;28;20048;-68
2022/11/29 05:01:17;;;;;;;3.38;2.13;;;;;;;2.89;70.14;94990.22;5093096;28;20063;-68
2022/11/29 05:04:00;;;;;;;5.03;2.70;;;;;;;3.00;70.15;94995.63;5129693;27;20484;-69
2022/11/29 05:06:43;;;;;;;3.67;2.30;;;;;;;3.02;70.15;94993.84;5114624;28;20031;-69
2022/11/29 05:09:41;;;;;;;2.80;1.98;;;;;;;3.07;70.15;94991.88;5147109;27;20077;-68
2022/11/29 05:12:42;;;;;;;2.22;1.63;;;;;;;2.92;69.84;94990.06;5114468;28;20023;-69
2022/11/29 05:15:29;;;;;;;4.53;2.55;;;;;;;2.95;70.59;94989.06;5113303;28;20033;-68
2022/11/29 05:18:01;;;;;;;3.15;2.00;;;;;;;2.94;70.09;94990.00;5114187;28;20070;-68
2022/11/29 05:21:02;;;;;;;14.52;8.20;;;;;;;2.99;70.14;94994.00;5147599;27;20015;-69
2022/11/29 05:23:51;;;;;;;11.63;6.20;;;;;;;3.06;70.49;94992.75;5080345;28;20071;-69
2022/11/29 05:26:30;;;;;;;3.90;2.20;;;;;;;3.03;70.66;94985.22;5114252;28;20035;-68
2022/11/29 05:29:25;;;;;;;5.32;3.22;;;;;;;3.08;71.39;94993.53;5129915;27;20043;-68
2022/11/29 05:32:03;;;;;;;2.88;1.98;;;;;;;3.11;70.97;95003.63;5132512;27;20497;-68
2022/11/29 05:34:50;;;;;;;4.07;2.17;;;;;;;3.09;70.76;94996.91;5114005;28;20561;-68
2022/11/29 05:37:24;;;;;;;3.83;2.08;;;;;;;3.08;70.68;95000.41;5112583;28;20408;-68
2022/11/29 05:40:26;;;;;;;3.60;2.17;;;;;;;2.96;71.17;95001.03;5113928;28;20111;-69
2022/11/29 05:43:07;;;;;;;2.50;1.80;;;;;;;3.02;70.87;95008.41;5112684;28;20042;-68
2022/11/29 05:45:48;;;;;;;3.30;1.75;;;;;;;3.05;70.36;94998.81;5094985;28;20035;-69
2022/11/29 05:48:44;;;;;;;6.57;3.78;;;;;;;3.12;70.65;95007.88;5097008;28;20039;-68
2022/11/29 05:51:22;;;;;;;11.68;6.15;;;;;;;3.22;71.73;95012.53;5077949;28;20089;-68
2022/11/29 05:54:23;;;;;;;14.60;7.13;;;;;;;3.32;71.32;95006.84;5094554;28;20103;-68
2022/11/29 05:56:54;;;;;;;12.38;6.35;;;;;;;3.30;71.69;95010.41;5111737;28;20035;-68
2022/11/29 05:59:22;;;;;;;5.65;3.10;;;;;;;3.16;71.38;95000.00;5109226;28;20020;-68
2022/11/29 06:02:25;;;;;;;4.10;2.40;;;;;;;3.10;70.51;95004.53;5095186;27;20120;-68
2022/11/29 06:04:57;;;;;;;5.40;3.00;;;;;;;2.49;70.48;94914.41;5113163;27;20038;-69
2022/11/29 06:07:36;;;;;;;5.25;3.15;;;;;;;3.21;71.53;95004.00;5144715;27;20031;-68
2022/11/29 06:10:10;;;;;;;2.80;2.35;;;;;;;3.27;71.46;95006.25;5109754;28;20023;-69
2022/11/29 06:12:36;;;;;;;4.65;2.97;;;;;;;3.23;71.25;94998.78;5091802;27;20047;-68
2022/11/29 06:15:22;;;;;;;4.68;2.97;;;;;;;3.35;71.08;94995.59;5111403;28;20019;-70
2022/11/29 06:18:02;;;;;;;5.15;3.10;;;;;;;3.35;70.92;94998.16;5109007;27;20084;-68
2022/11/29 06:20:37;;;;;;;6.33;3.10;;;;;;;3.36;70.86;95000.63;5075257;28;20050;-68
2022/11/29 06:23:36;;;;;;;4.70;3.20;;;;;;;3.28;69.42;94976.28;5107458;28;20384;-68
2022/11/29 06:26:11;;;;;;;6.93;3.83;;;;;;;3.40;68.69;95001.34;5095664;28;20127;-68
2022/11/29 06:28:39;;;;;;;5.22;3.60;;;;;;;3.45;68.33;95008.78;5111218;28;20132;-68
2022/11/29 06:31:20;;;;;;;5.70;3.60;;;;;;;3.49;68.71;95008.56;5114713;27;20023;-69
2022/11/29 06:34:03;;;;;;;5.28;3.67;;;;;;;3.52;68.27;95002.44;5090874;28;20028;-69
2022/11/29 06:36:46;;;;;;;7.30;5.07;;;;;;;3.49;68.38;94998.28;5110270;27;20027;-68
2022/11/29 06:39:11;;;;;;;15.65;10.75;;;;;;;3.53;68.11;95002.34;5091065;28;20184;-68
2022/11/29 06:41:37;;;;;;;7.85;6.35;;;;;;;3.45;67.62;94989.06;5091025;28;20492;-69
2022/11/29 06:44:03;;;;;;;6.47;5.18;;;;;;;3.46;67.51;94993.31;5105946;28;20088;-69
2022/11/29 06:46:50;;;;;;;11.63;9.00;;;;;;;3.51;67.74;95000.75;5104584;28;20104;-67
2022/11/29 06:49:28;;;;;;;7.60;4.78;;;;;;;3.56;67.82;95001.34;5089600;28;20058;-67
2022/11/29 06:52:37;;;;;;;6.38;4.85;;;;;;;3.48;67.76;95001.75;5108263;28;20027;-69
2022/11/29 06:55:03;;;;;;;10.30;7.85;;;;;;;3.48;68.60;95013.75;5089451;28;20138;-67
2022/11/29 06:57:50;;;;;;;7.15;5.47;;;;;;;3.52;68.25;95016.09;5108973;28;20110;-67
2022/11/29 07:00:25;;;;;;;8.65;5.80;;;;;;;3.58;68.37;95014.94;5111317;27;20123;-67
2022/11/29 07:03:22;;;;;;;7.30;4.93;;;;;;;3.71;67.86;95010.84;5107961;28;20027;-68
2022/11/29 07:05:48;;;;;;;8.73;5.90;;;;;;;3.62;67.79;95011.28;5104311;28;20188;-67
2022/11/29 07:08:21;;;;;;;20.52;8.30;;;;;;;3.69;67.70;95006.69;5108691;28;20536;-69
2022/11/29 07:10:48;;;;;;;56.70;19.65;;;;;;;3.80;67.31;95007.75;5088757;27;20412;-68
2022/11/29 07:13:15;;;;;;;97.05;28.80;;;;;;;3.90;67.01;95010.69;5108921;27;20114;-68
2022/11/29 07:15:55;;;;;;;139.48;36.17;;;;;;;4.02;66.20;95010.03;5107306;27;20019;-68
2022/11/29 07:18:33;;;;;;;73.00;21.13;;;;;;;4.08;65.62;95003.72;5105877;27;20043;-68
2022/11/29 07:21:05;;;;;;;26.92;10.50;;;;;;;3.99;66.08;95015.31;5107425;28;20024;-68
2022/11/29 07:23:30;;;;;;;35.28;11.18;;;;;;;4.07;65.26;95006.34;5110096;28;20040;-67
2022/11/29 07:26:13;;;;;;;47.85;13.63;;;;;;;4.10;65.63;95001.06;5108419;28;20507;-67
2022/11/29 07:29:03;;;;;;;29.13;9.48;;;;;;;4.17;65.49;95010.09;5091062;28;20122;-68
2022/11/29 07:31:47;;;;;;;17.73;6.70;;;;;;;4.31;64.51;95020.44;5108312;28;20095;-68
2022/11/29 07:34:13;;;;;;;19.55;6.90;;;;;;;4.30;64.96;95021.38;5108139;28;20028;-67
2022/11/29 07:36:55;;;;;;;24.88;9.38;;;;;;;4.30;65.72;95016.22;5108198;28;20553;-68
2022/11/29 07:39:39;;;;;;;24.45;9.05;;;;;;;4.43;64.86;95019.78;5091243;28;20477;-68
2022/11/29 07:42:18;;;;;;;18.20;7.35;;;;;;;4.47;64.95;95021.28;5110274;28;20031;-68
2022/11/29 07:45:21;;;;;;;12.50;6.82;;;;;;;4.44;65.52;95021.44;5110472;28;20408;-68
2022/11/29 07:47:47;;;;;;;6.97;4.50;;;;;;;4.51;65.50;95018.53;5111662;28;20028;-68
2022/11/29 07:50:13;;;;;;;3.33;2.00;;;;;;;4.39;65.36;95008.00;5110416;28;20031;-68
2022/11/29 07:52:38;;;;;;;5.80;2.72;;;;;;;4.36;65.64;95018.47;5093121;28;20092;-67
2022/11/29 07:55:04;;;;;;;5.03;3.00;;;;;;;4.18;66.20;95014.31;5111495;28;20031;-68
2022/11/29 07:57:30;;;;;;;3.10;1.90;;;;;;;3.99;65.53;95010.19;5109978;28;20035;-67
2022/11/29 07:59:55;;;;;;;3.30;1.95;;;;;;;3.94;66.69;95019.06;5110193;28;20028;-67
2022/11/29 08:02:30;;;;;;;4.65;3.70;;;;;;;3.93;67.06;95014.84;5093135;28;20032;-67
2022/11/29 08:04:55;;;;;;;2.85;1.90;;;;;;;3.81;66.70;95024.00;5093224;28;20031;-67
2022/11/29 08:07:23;;;;;;;2.63;1.70;;;;;;;3.82;67.12;95023.13;5111306;28;20059;-68
2022/11/29 08:09:49;;;;;;;13.75;10.43;;;;;;;3.84;67.60;95015.31;5111362;28;20123;-68
2022/11/29 08:12:14;;;;;;;14.30;9.32;;;;;;;3.98;67.23;95025.69;5093164;28;20094;-68
2022/11/29 08:14:40;;;;;;;42.70;31.52;;;;;;;3.97;67.23;95019.72;5111178;28;20409;-67
2022/11/29 08:17:05;;;;;;;31.88;25.50;;;;;;;4.07;66.92;95026.94;5093003;28;20432;-68
2022/11/29 08:19:31;;;;;;;14.45;11.65;;;;;;;4.08;66.97;95031.19;5109964;28;20424;-68
2022/11/29 08:21:56;;;;;;;16.33;13.63;;;;;;;3.97;67.10;95027.44;5110050;28;20023;-67
2022/11/29 08:24:21;;;;;;;25.30;21.17;;;;;;;3.95;67.09;95013.81;5093099;28;20059;-68
2022/11/29 08:26:47;;;;;;;7.55;5.85;;;;;;;3.81;67.14;94993.16;5111186;28;20019;-68
2022/11/29 08:29:12;;;;;;;7.07;5.60;;;;;;;4.02;67.45;95025.44;5111823;28;20040;-67
2022/11/29 08:31:38;;;;;;;7.35;5.75;;;;;;;4.01;67.72;95026.38;5097083;28;20092;-67
2022/11/29 08:34:07;;;;;;;5.10;3.40;;;;;;;3.99;67.56;95012.75;5115576;27;20028;-68
2022/11/29 08:36:32;;;;;;;4.00;3.30;;;;;;;4.14;67.39;95020.56;5097029;28;20032;-67
2022/11/29 08:38:58;;;;;;;4.78;4.00;;;;;;;4.15;67.33;95012.78;5115507;28;20032;-67
2022/11/29 08:41:23;;;;;;;6.32;5.47;;;;;;;4.23;67.28;95018.31;5113863;28;20432;-67
2022/11/29 08:43:48;;;;;;;3.97;2.72;;;;;;;4.21;67.56;95016.75;5113974;28;20028;-68
2022/11/29 08:46:14;;;;;;;21.15;10.90;;;;;;;4.25;67.23;95013.06;5115045;28;20023;-68
2022/11/29 08:48:39;;;;;;;61.20;23.63;;;;;;;4.31;67.16;95015.31;5115154;28;20031;-68
2022/11/29 08:51:05;;;;;;;11.02;7.40;;;;;;;4.31;67.01;95022.19;5113780;28;20029;-67
2022/11/29 08:53:44;;;;;;;3.53;2.58;;;;;;;4.19;67.38;95027.09;5113635;28;20034;-67
2022/11/29 08:56:15;;;;;;;12.68;8.75;;;;;;;4.11;67.58;95018.97;5098702;28;20477;-68
2022/11/29 08:58:40;;;;;;;16.43;9.43;;;;;;;4.02;68.47;95027.19;5113738;28;20039;-67
2022/11/29 09:01:24;;;;;;;32.35;19.50;;;;;;;4.18;67.97;95022.88;5079528;28;20028;-68
2022/11/29 09:03:58;;;;;;;9.23;6.47;;;;;;;4.21;67.89;95015.00;5096538;28;20028;-67
2022/11/29 09:06:24;;;;;;;8.88;5.25;;;;;;;4.37;67.71;95014.13;5113442;28;20038;-67
2022/11/29 09:08:50;;;;;;;18.08;10.93;;;;;;;4.38;67.47;95015.81;5114773;28;20061;-68
2022/11/29 09:11:19;;;;;;;14.27;8.55;;;;;;;4.28;67.77;95010.34;5113395;28;20024;-67
2022/11/29 09:13:46;;;;;;;8.00;4.15;;;;;;;4.29;68.13;95013.72;5113286;28;20036;-67
2022/11/29 09:16:13;;;;;;;8.88;5.57;;;;;;;4.44;67.15;95008.59;5096281;28;20027;-68
2022/11/29 09:18:39;;;;;;;9.82;5.40;;;;;;;4.44;67.50;95010.31;5112995;28;20051;-67
2022/11/29 09:21:06;;;;;;;9.23;3.45;;;;;;;4.33;67.29;95002.38;5096298;28;20020;-68
2022/11/29 09:23:31;;;;;;;4.78;2.60;;;;;;;4.42;67.31;95001.84;5096196;28;20096;-68
2022/11/29 09:25:57;;;;;;;8.52;5.53;;;;;;;4.47;67.49;95007.59;5114209;28;20020;-67
2022/11/29 09:28:23;;;;;;;8.38;4.30;;;;;;;4.39;67.48;95002.03;5114232;28;20038;-68
2022/11/29 09:30:49;;;;;;;5.53;3.50;;;;;;;4.13;68.10;94996.59;5114194;28;20063;-67
2022/11/29 09:33:15;;;;;;;11.00;6.95;;;;;;;4.19;68.34;95005.72;5113020;28;20523;-67
2022/11/29 09:35:41;;;;;;;8.70;5.93;;;;;;;4.24;68.32;94998.56;5112830;28;20035;-68
2022/11/29 09:38:06;;;;;;;3.65;2.33;;;;;;;4.14;68.12;94993.09;5112809;28;20027;-67
2022/11/29 09:40:51;;;;;;;8.32;3.83;;;;;;;4.07;69.08;94988.34;5113454;28;20027;-68
2022/11/29 09:43:44;;;;;;;12.98;5.40;;;;;;;4.15;68.99;94992.19;5096822;28;20046;-67
2022/11/29 09:46:16;;;;;;;4.65;2.97;;;;;;;4.30;68.20;94992.25;5113105;28;20032;-68
2022/11/29 09:48:47;;;;;;;6.15;3.60;;;;;;;4.13;68.39;94986.31;5112505;28;20035;-68
2022/11/29 09:51:22;;;;;;;5.97;3.45;;;;;;;4.13;68.54;94985.47;5112588;28;20106;-68
2022/11/29 09:53:56;;;;;;;4.90;3.00;;;;;;;4.19;68.67;94977.41;5112666;28;20067;-67
2022/11/29 09:56:29;;;;;;;6.15;4.53;;;;;;;4.28;68.38;94965.78;5113840;28;20032;-68
2022/11/29 09:59:06;;;;;;;4.95;3.75;;;;;;;4.21;68.29;94973.84;5112512;28;20024;-68
2022/11/29 10:01:36;;;;;;;4.43;2.83;;;;;;;4.27;67.97;94970.13;5112400;28;20515;-67
2022/11/29 10:04:10;;;;;;;7.33;4.67;;;;;;;4.30;68.41;94972.50;5095863;28;20140;-68
2022/11/29 10:06:39;;;;;;;8.95;4.80;;;;;;;4.33;67.97;94956.91;5095712;28;20273;-68
2022/11/29 10:09:24;;;;;;;6.13;3.40;;;;;;;4.44;67.79;94964.84;5095496;28;20447;-68
2022/11/29 10:12:22;;;;;;;4.90;2.75;;;;;;;4.54;67.58;94957.44;5113360;28;20390;-68
2022/11/29 10:14:55;;;;;;;4.07;3.03;;;;;;;4.61;67.33;94960.50;5091315;28;20198;-68
2022/11/29 10:17:35;;;;;;;6.22;3.65;;;;;;;4.38;67.46;94959.22;5112040;28;20058;-68
2022/11/29 10:20:18;;;;;;;5.53;3.90;;;;;;;4.44;67.99;94956.31;5112018;28;20127;-68
2022/11/29 10:22:48;;;;;;;7.25;3.80;;;;;;;4.33;68.01;94956.91;5095815;28;20551;-68
2022/11/29 10:25:29;;;;;;;4.57;3.28;;;;;;;4.58;68.11;94955.53;5111842;28;20112;-68
2022/11/29 10:27:54;;;;;;;5.40;3.65;;;;;;;4.37;67.80;94942.13;5111907;28;20020;-67
2022/11/29 10:30:20;;;;;;;4.97;3.13;;;;;;;4.38;68.59;94949.75;5113023;28;20043;-67
2022/11/29 10:32:47;;;;;;;4.85;2.92;;;;;;;4.40;67.89;94942.78;5111921;28;20565;-68
2022/11/29 10:35:14;;;;;;;5.93;2.92;;;;;;;4.41;68.14;94947.00;5094994;28;20035;-67
2022/11/29 10:37:40;;;;;;;5.60;3.42;;;;;;;4.51;67.96;94949.88;5112704;28;20062;-67
2022/11/29 10:40:11;;;;;;;5.43;3.45;;;;;;;4.36;68.07;94941.28;5094578;28;20036;-68
2022/11/29 10:42:48;;;;;;;6.57;3.67;;;;;;;4.45;67.87;94942.50;5094903;28;20504;-68
2022/11/29 10:45:44;;;;;;;7.00;4.50;;;;;;;4.51;68.11;94938.75;5111664;28;20035;-68
2022/11/29 10:48:16;;;;;;;6.97;4.88;;;;;;;4.46;68.19;94921.03;5096100;28;20054;-68
2022/11/29 10:50:42;;;;;;;;;;;;;;;4.58;68.75;94947.81;5095183;28;20046;-68
2022/11/29 10:53:24;;;;;;;7.88;4.60;;;;;;;4.50;68.97;94949.97;5093494;28;19920;-68
2022/11/29 10:55:52;;;;;;;5.63;4.63;;;;;;;4.39;69.02;94940.28;5111227;28;20088;-67
2022/11/29 10:58:24;;;;;;;7.32;5.03;;;;;;;4.47;69.09;94938.94;5112522;28;20666;-67
2022/11/29 11:01:14;;;;;;;7.57;5.25;;;;;;;4.51;69.30;94941.34;5094744;28;20085;-68
2022/11/29 11:03:40;;;;;;;7.15;5.22;;;;;;;4.51;69.08;94925.91;5111279;28;20409;-68
2022/11/29 11:06:45;;;;;;;8.15;5.97;;;;;;;4.47;69.14;94938.94;5094197;28;20493;-68
2022/11/29 11:09:27;;;;;;;8.05;5.47;;;;;;;4.40;69.88;94924.78;5102977;28;20050;-68
2022/11/29 11:11:54;;;;;;;7.82;5.45;;;;;;;4.49;69.95;94936.31;5096198;28;20028;-68
2022/11/29 11:14:20;;;;;;;7.57;5.32;;;;;;;4.49;69.59;94933.72;5094273;28;20492;-68
2022/11/29 11:16:45;;;;;;;9.10;5.53;;;;;;;4.54;69.64;94931.72;5112133;28;20034;-68
2022/11/29 11:19:32;;;;;;;9.65;7.00;;;;;;;4.56;69.27;94931.63;5093828;28;20424;-68
2022/11/29 11:21:59;;;;;;;8.68;5.97;;;;;;;4.50;69.82;94939.69;5112053;28;20020;-68
2022/11/29 11:24:45;;;;;;;8.30;6.03;;;;;;;4.28;70.24;94927.22;5110894;28;20050;-68
2022/11/29 11:27:10;;;;;;;10.02;6.60;;;;;;;4.37;70.66;94936.97;5110021;28;20036;-68
2022/11/29 11:29:40;;;;;;;9.40;5.60;;;;;;;4.30;70.83;94938.25;5093596;28;20034;-68
2022/11/29 11:32:16;;;;;;;8.93;5.75;;;;;;;4.15;71.55;94932.19;5093792;28;20035;-68
2022/11/29 11:34:53;;;;;;;7.30;5.30;;;;;;;4.12;71.77;94934.94;5110505;28;20114;-69
2022/11/29 11:37:20;;;;;;;11.35;6.63;;;;;;;4.27;71.86;94941.81;5093739;28;20416;-68
2022/11/29 11:39:48;;;;;;;9.30;5.82;;;;;;;4.36;71.64;94938.72;5110401;28;20030;-68
2022/11/29 11:42:35;;;;;;;7.80;4.85;;;;;;;4.35;71.38;94941.41;5077073;28;20511;-68
2022/11/29 11:45:25;;;;;;;7.05;4.60;;;;;;;4.31;71.27;94945.88;5110636;28;20463;-68
2022/11/29 11:47:52;;;;;;;6.47;4.32;;;;;;;4.26;71.69;94937.56;5090839;28;20118;-68
2022/11/29 11:50:51;;;;;;;8.65;5.05;;;;;;;4.15;72.01;94940.78;5093528;28;20102;-68
2022/11/29 11:53:30;;;;;;;8.32;6.00;;;;;;;4.24;71.65;94932.53;5081534;28;20510;-68
2022/11/29 11:56:02;;;;;;;9.85;5.72;;;;;;;4.39;71.50;94945.44;5077327;28;20489;-68
2022/11/29 11:58:30;;;;;;;9.95;5.57;;;;;;;4.38;71.26;94938.66;5110260;28;20031;-68
2022/11/29 12:01:12;;;;;;;9.10;5.22;;;;;;;4.41;71.37;94941.88;5093425;28;20072;-67
2022/11/29 12:03:40;;;;;;;8.13;5.10;;;;;;;4.44;71.60;94946.84;5110238;28;20032;-68
2022/11/29 12:06:30;;;;;;;7.97;4.68;;;;;;;4.54;71.48;94946.31;5111343;28;20027;-68
2022/11/29 12:09:02;;;;;;;7.63;5.10;;;;;;;4.66;70.94;94940.47;5111653;28;20038;-68
2022/11/29 12:11:32;;;;;;;7.05;4.85;;;;;;;4.75;70.66;94945.09;5111285;28;20039;-68
2022/11/29 12:13:58;;;;;;;8.60;5.43;;;;;;;4.77;70.52;94935.53;5076754;28;20039;-68
2022/11/29 12:16:27;;;;;;;7.63;5.10;;;;;;;4.81;70.25;94925.88;5076202;28;20137;-68
2022/11/29 12:19:35;;;;;;;9.43;4.93;;;;;;;4.84;70.17;94925.69;5093188;28;20054;-68
2022/11/29 12:22:02;;;;;;;8.85;5.30;;;;;;;5.00;69.56;94925.63;5076741;28;20031;-68
2022/11/29 12:24:30;;;;;;;7.45;5.15;;;;;;;4.87;69.48;94923.75;5093007;28;20028;-68
2022/11/29 12:26:57;;;;;;;9.48;6.07;;;;;;;4.93;69.61;94917.44;5127317;27;20038;-68
2022/11/29 12:29:22;;;;;;;10.32;6.53;;;;;;;5.12;69.26;94930.03;5093047;28;20038;-68
2022/11/29 12:32:17;;;;;;;9.68;5.75;;;;;;;5.08;69.44;94939.72;5092945;28;20024;-68
2022/11/29 12:34:52;;;;;;;8.52;5.45;;;;;;;5.12;69.35;94930.88;5109873;28;20027;-68
2022/11/29 12:37:27;;;;;;;11.25;6.20;;;;;;;5.13;69.45;94927.41;5111385;28;20456;-68